Time;durP1;ratioP1;P1;durP2;ratioP2;P2;SDS_P1;SDS_P2;PMS_P1;PMS_P2;Temp;Humidity;BMP_temperature;BMP_pressure;BME280_temperature;BME280_humidity;BME280_pressure;Samples;Min_cycle;Max_cycle;Signal;HPM_P1;HPM_P2
2021/08/23 00:00:59;;;;;;;0.40;0.30;;;15.50;99.90;;;;;;5093793;28;20381;-81
2021/08/23 00:03:24;;;;;;;0.40;0.20;;;15.40;99.90;;;;;;5092851;28;20667;-80
2021/08/23 00:05:50;;;;;;;0.40;0.22;;;15.40;99.90;;;;;;5092390;28;20401;-81
2021/08/23 00:08:16;;;;;;;0.40;0.30;;;15.40;99.90;;;;;;5077279;28;20387;-81
2021/08/23 00:10:42;;;;;;;0.40;0.28;;;15.40;99.90;;;;;;5073258;28;20404;-80
2021/08/23 00:13:08;;;;;;;0.40;0.30;;;15.40;99.90;;;;;;5072812;28;20744;-79
2021/08/23 00:15:34;;;;;;;0.40;0.20;;;15.40;99.90;;;;;;5073393;28;20415;-80
2021/08/23 00:18:00;;;;;;;0.40;0.30;;;15.50;99.90;;;;;;5073322;28;20482;-80
2021/08/23 00:20:41;;;;;;;0.40;0.30;;;15.40;99.90;;;;;;5071286;28;20475;-78
2021/08/23 00:23:10;;;;;;;0.40;0.30;;;15.50;99.90;;;;;;5072253;28;20400;-78
2021/08/23 00:25:36;;;;;;;0.40;0.30;;;15.30;99.90;;;;;;5073207;28;20542;-80
2021/08/23 00:28:02;;;;;;;0.40;0.20;;;15.30;99.90;;;;;;5073442;28;20474;-79
2021/08/23 00:30:28;;;;;;;0.40;0.30;;;15.30;99.90;;;;;;5072490;28;20487;-79
2021/08/23 00:32:53;;;;;;;0.40;0.30;;;15.20;99.90;;;;;;5072977;28;20441;-79
2021/08/23 00:35:19;;;;;;;0.40;0.30;;;15.10;99.90;;;;;;5072379;28;20376;-80
2021/08/23 00:37:45;;;;;;;0.40;0.28;;;15.10;99.90;;;;;;5072957;28;20433;-81
2021/08/23 00:40:11;;;;;;;0.40;0.20;;;15.20;99.90;;;;;;5071997;28;20380;-79
2021/08/23 00:42:36;;;;;;;0.40;0.30;;;15.10;99.90;;;;;;5072836;28;20379;-80
2021/08/23 00:45:02;;;;;;;0.40;0.20;;;15.00;99.90;;;;;;5073046;28;20702;-81
2021/08/23 00:47:28;;;;;;;0.40;0.30;;;15.00;99.90;;;;;;5072051;28;20387;-82
2021/08/23 00:49:54;;;;;;;0.40;0.20;;;15.00;99.90;;;;;;5072566;28;20402;-81
2021/08/23 00:52:19;;;;;;;0.40;0.20;;;15.00;99.90;;;;;;5071611;28;20403;-81
2021/08/23 00:54:45;;;;;;;0.40;0.20;;;14.90;99.90;;;;;;5072627;28;20476;-82
2021/08/23 00:57:11;;;;;;;0.40;0.30;;;14.90;99.90;;;;;;5072149;28;20388;-80
2021/08/23 00:59:40;;;;;;;0.40;0.20;;;14.90;99.90;;;;;;5054704;28;20882;-83
2021/08/23 01:02:12;;;;;;;0.40;0.20;;;14.90;99.90;;;;;;5072372;28;20376;-82
2021/08/23 01:04:52;;;;;;;0.40;0.20;;;14.80;99.90;;;;;;5072518;28;20387;-82
2021/08/23 01:07:23;;;;;;;0.40;0.20;;;14.70;99.90;;;;;;5079515;28;20385;-81
2021/08/23 01:09:57;;;;;;;0.40;0.25;;;14.70;99.90;;;;;;5092278;28;20545;-82
2021/08/23 01:12:25;;;;;;;0.40;0.20;;;14.70;99.90;;;;;;5091858;28;20379;-82
2021/08/23 01:14:50;;;;;;;0.40;0.20;;;14.70;99.90;;;;;;5092470;28;20459;-82
2021/08/23 01:17:16;;;;;;;0.40;0.20;;;14.50;99.90;;;;;;5091786;28;20479;-81
2021/08/23 01:19:47;;;;;;;0.40;0.20;;;14.60;99.90;;;;;;5092577;28;20382;-82
2021/08/23 01:22:13;;;;;;;0.40;0.20;;;14.60;99.90;;;;;;5091371;28;20865;-81
2021/08/23 01:24:39;;;;;;;0.40;0.30;;;14.50;99.90;;;;;;5092251;28;20382;-80
2021/08/23 01:27:09;;;;;;;0.40;0.20;;;14.50;99.90;;;;;;5092202;28;20452;-82
2021/08/23 01:30:03;;;;;;;0.40;0.30;;;14.50;99.90;;;;;;5091811;28;20397;-82
2021/08/23 01:32:29;;;;;;;0.40;0.30;;;14.40;99.90;;;;;;5091213;28;20374;-81
2021/08/23 01:34:56;;;;;;;0.40;0.20;;;14.40;99.90;;;;;;5092074;28;20454;-82
2021/08/23 01:37:23;;;;;;;0.40;0.20;;;14.40;99.90;;;;;;5091285;28;20406;-81
2021/08/23 01:39:49;;;;;;;0.40;0.30;;;14.40;99.90;;;;;;5091983;28;20375;-82
2021/08/23 01:42:15;;;;;;;0.40;0.30;;;14.50;99.90;;;;;;5091209;28;20378;-81
2021/08/23 01:44:42;;;;;;;0.40;0.20;;;14.40;99.90;;;;;;5091609;28;20796;-82
2021/08/23 01:47:08;;;;;;;0.40;0.20;;;14.30;99.90;;;;;;5091504;28;20392;-82
2021/08/23 01:49:34;;;;;;;0.40;0.30;;;14.20;99.90;;;;;;5091132;28;20493;-81
2021/08/23 01:52:00;;;;;;;0.40;0.20;;;14.20;99.90;;;;;;5091328;28;20781;-82
2021/08/23 01:54:25;;;;;;;0.40;0.20;;;14.30;99.90;;;;;;5091415;28;20378;-81
2021/08/23 01:56:51;;;;;;;0.40;0.30;;;14.20;99.90;;;;;;5091537;28;20378;-81
2021/08/23 01:59:16;;;;;;;0.40;0.20;;;14.30;99.90;;;;;;5091139;28;20834;-81
2021/08/23 02:01:43;;;;;;;0.40;0.30;;;14.20;99.90;;;;;;5091735;28;20846;-82
2021/08/23 02:04:09;;;;;;;0.40;0.30;;;14.20;99.90;;;;;;5091505;28;20370;-82
2021/08/23 02:06:35;;;;;;;0.40;0.20;;;14.10;99.90;;;;;;5089253;28;20730;-81
2021/08/23 02:09:00;;;;;;;0.40;0.20;;;14.10;99.90;;;;;;5071080;28;20409;-80
2021/08/23 02:11:26;;;;;;;0.40;0.30;;;14.20;99.90;;;;;;5070661;28;20483;-82
2021/08/23 02:13:53;;;;;;;0.40;0.20;;;14.10;99.90;;;;;;5071181;28;20837;-81
2021/08/23 02:16:19;;;;;;;0.40;0.20;;;14.10;99.90;;;;;;5070340;28;20863;-81
2021/08/23 02:18:45;;;;;;;0.40;0.30;;;14.00;99.90;;;;;;5071102;28;20458;-81
2021/08/23 02:21:11;;;;;;;0.40;0.20;;;14.00;99.90;;;;;;5070731;28;20479;-81
2021/08/23 02:23:37;;;;;;;0.40;0.30;;;14.00;99.90;;;;;;5069602;28;20905;-81
2021/08/23 02:26:03;;;;;;;0.40;0.30;;;13.90;99.90;;;;;;5071175;28;20396;-82
2021/08/23 02:28:29;;;;;;;0.40;0.30;;;13.90;99.90;;;;;;5070009;28;20898;-82
2021/08/23 02:30:55;;;;;;;0.40;0.20;;;13.80;99.90;;;;;;5070887;28;20400;-82
2021/08/23 02:33:20;;;;;;;0.40;0.20;;;13.80;99.90;;;;;;5070307;28;20453;-81
2021/08/23 02:35:46;;;;;;;0.40;0.20;;;13.80;99.90;;;;;;5071396;28;20467;-81
2021/08/23 02:38:12;;;;;;;0.40;0.20;;;13.70;99.90;;;;;;5070581;28;20379;-81
2021/08/23 02:40:38;;;;;;;0.40;0.30;;;13.80;99.90;;;;;;5070056;28;20822;-82
2021/08/23 02:43:03;;;;;;;0.40;0.20;;;13.80;99.90;;;;;;5070844;28;20866;-82
2021/08/23 02:45:29;;;;;;;0.40;0.20;;;13.80;99.90;;;;;;5069006;28;20724;-81
2021/08/23 02:47:55;;;;;;;0.40;0.30;;;13.70;99.90;;;;;;5070797;28;20408;-81
2021/08/23 02:50:21;;;;;;;0.40;0.30;;;13.70;99.90;;;;;;5070156;28;20418;-81
2021/08/23 02:52:46;;;;;;;0.40;0.30;;;13.70;99.90;;;;;;5070721;28;20756;-81
2021/08/23 02:55:12;;;;;;;0.40;0.30;;;13.80;99.90;;;;;;5070756;28;20879;-82
2021/08/23 02:57:38;;;;;;;0.40;0.20;;;13.70;99.90;;;;;;5070055;28;20383;-82
2021/08/23 03:00:06;;;;;;;0.40;0.30;;;13.60;99.90;;;;;;5071021;28;20387;-79
2021/08/23 03:02:31;;;;;;;0.40;0.30;;;13.70;99.90;;;;;;5070033;28;20419;-80
2021/08/23 03:04:58;;;;;;;0.40;0.20;;;13.70;99.90;;;;;;5071017;28;20757;-80
2021/08/23 03:07:23;;;;;;;0.40;0.20;;;13.70;99.90;;;;;;5077838;28;20378;-80
2021/08/23 03:09:49;;;;;;;0.40;0.20;;;13.50;99.90;;;;;;5090377;28;20421;-81
2021/08/23 03:12:15;;;;;;;0.40;0.20;;;13.50;99.90;;;;;;5090727;28;20411;-81
2021/08/23 03:14:41;;;;;;;0.40;0.30;;;13.50;99.90;;;;;;5090005;28;20374;-80
2021/08/23 03:17:06;;;;;;;0.40;0.20;;;13.50;99.90;;;;;;5090547;28;20436;-81
2021/08/23 03:19:32;;;;;;;0.40;0.30;;;13.60;99.90;;;;;;5090043;28;20390;-80
2021/08/23 03:21:58;;;;;;;0.40;0.30;;;13.60;99.90;;;;;;5090230;28;20402;-81
2021/08/23 03:24:24;;;;;;;0.40;0.30;;;13.40;99.90;;;;;;5089879;28;20410;-80
2021/08/23 03:26:49;;;;;;;0.40;0.30;;;13.40;99.90;;;;;;5090603;28;20402;-81
2021/08/23 03:29:15;;;;;;;0.40;0.20;;;13.40;99.90;;;;;;5090484;28;20399;-81
2021/08/23 03:31:41;;;;;;;0.40;0.20;;;13.50;99.90;;;;;;5088706;28;20439;-80
2021/08/23 03:34:12;;;;;;;0.40;0.20;;;13.50;99.90;;;;;;5092974;28;20382;-80
2021/08/23 03:36:39;;;;;;;0.40;0.30;;;13.50;99.90;;;;;;5093839;28;20653;-80
2021/08/23 03:39:05;;;;;;;0.40;0.20;;;13.50;99.90;;;;;;5094274;28;20392;-80
2021/08/23 03:41:30;;;;;;;0.40;0.30;;;13.60;99.90;;;;;;5093426;28;20456;-80
2021/08/23 03:43:56;;;;;;;0.40;0.30;;;13.60;99.90;;;;;;5094004;28;20440;-80
2021/08/23 03:46:21;;;;;;;0.40;0.30;;;13.50;99.90;;;;;;5093293;28;20423;-80
2021/08/23 03:48:47;;;;;;;0.40;0.20;;;13.60;99.90;;;;;;5093994;28;20401;-80
2021/08/23 03:51:12;;;;;;;0.40;0.30;;;13.60;99.90;;;;;;5093693;28;20758;-81
2021/08/23 03:53:38;;;;;;;0.40;0.20;;;13.50;99.90;;;;;;5092945;28;20683;-81
2021/08/23 03:56:04;;;;;;;0.40;0.20;;;13.50;99.90;;;;;;5094057;28;20379;-80
2021/08/23 03:58:29;;;;;;;0.40;0.20;;;13.50;99.90;;;;;;5093151;28;20389;-79
2021/08/23 04:00:58;;;;;;;0.40;0.30;;;13.60;99.90;;;;;;5093932;28;20441;-80
2021/08/23 04:03:24;;;;;;;0.40;0.30;;;13.70;99.90;;;;;;5093468;28;20374;-79
2021/08/23 04:05:49;;;;;;;0.40;0.20;;;13.80;99.90;;;;;;5093806;28;20370;-79
2021/08/23 04:08:15;;;;;;;0.40;0.30;;;13.80;99.90;;;;;;5078072;28;20388;-80
2021/08/23 04:10:40;;;;;;;0.40;0.30;;;13.70;99.90;;;;;;5073149;28;20404;-80
2021/08/23 04:13:06;;;;;;;0.40;0.20;;;13.70;99.90;;;;;;5073650;28;20436;-80
2021/08/23 04:15:32;;;;;;;0.40;0.30;;;13.60;99.90;;;;;;5073119;28;20376;-80
2021/08/23 04:17:59;;;;;;;0.40;0.30;;;13.60;99.90;;;;;;5073627;28;20475;-80
2021/08/23 04:20:25;;;;;;;0.40;0.20;;;13.70;99.90;;;;;;5072826;28;20381;-80
2021/08/23 04:22:50;;;;;;;0.40;0.20;;;13.60;99.90;;;;;;5073299;28;20887;-82
2021/08/23 04:25:16;;;;;;;0.40;0.20;;;13.50;99.90;;;;;;5072120;28;20391;-81
2021/08/23 04:27:42;;;;;;;0.40;0.30;;;13.50;99.90;;;;;;5072558;28;20386;-80
2021/08/23 04:30:08;;;;;;;0.40;0.20;;;13.40;99.90;;;;;;5073223;28;20906;-81
2021/08/23 04:32:33;;;;;;;0.40;0.30;;;13.40;99.90;;;;;;5072949;28;20388;-81
2021/08/23 04:34:59;;;;;;;0.40;0.30;;;13.40;99.90;;;;;;5073001;28;20388;-81
2021/08/23 04:37:24;;;;;;;0.40;0.30;;;13.50;99.90;;;;;;5072384;28;20456;-81
2021/08/23 04:39:50;;;;;;;0.40;0.30;;;13.40;99.90;;;;;;5073248;28;20462;-80
2021/08/23 04:42:16;;;;;;;0.40;0.30;;;13.40;99.90;;;;;;5073205;28;20466;-80
2021/08/23 04:44:44;;;;;;;0.40;0.30;;;13.40;99.90;;;;;;5071830;28;20675;-81
2021/08/23 04:47:10;;;;;;;0.40;0.20;;;13.40;99.90;;;;;;5073128;28;20372;-81
2021/08/23 04:49:36;;;;;;;0.40;0.20;;;13.30;99.90;;;;;;5072081;28;20406;-81
2021/08/23 04:52:02;;;;;;;0.40;0.30;;;13.30;99.90;;;;;;5072858;28;20407;-81
2021/08/23 04:54:28;;;;;;;0.40;0.20;;;13.40;99.90;;;;;;5071971;28;20391;-80
2021/08/23 04:56:53;;;;;;;0.40;0.30;;;13.40;99.90;;;;;;5072802;28;20372;-81
2021/08/23 04:59:19;;;;;;;0.40;0.20;;;13.30;99.90;;;;;;5073005;28;20388;-81
2021/08/23 05:01:45;;;;;;;0.40;0.30;;;13.40;99.90;;;;;;5072149;28;20862;-80
2021/08/23 05:04:11;;;;;;;0.40;0.20;;;13.50;99.90;;;;;;5071313;28;20752;-82
2021/08/23 05:06:36;;;;;;;0.40;0.20;;;13.40;99.90;;;;;;5073740;28;20375;-82
2021/08/23 05:09:02;;;;;;;0.40;0.20;;;13.50;99.90;;;;;;5092487;28;20766;-79
2021/08/23 05:11:29;;;;;;;0.40;0.20;;;13.60;99.90;;;;;;5092165;28;20900;-82
2021/08/23 05:13:54;;;;;;;0.40;0.30;;;13.70;99.90;;;;;;5092727;28;20405;-81
2021/08/23 05:16:20;;;;;;;0.40;0.20;;;13.80;99.90;;;;;;5092750;28;20777;-81
2021/08/23 05:18:46;;;;;;;0.40;0.20;;;13.80;99.90;;;;;;5092196;28;20842;-81
2021/08/23 05:21:11;;;;;;;0.40;0.28;;;13.70;99.90;;;;;;5092015;28;20452;-81
2021/08/23 05:23:37;;;;;;;0.40;0.20;;;13.80;99.90;;;;;;5090341;28;20424;-81
2021/08/23 05:26:06;;;;;;;0.40;0.30;;;13.70;99.90;;;;;;5092488;28;20465;-81
2021/08/23 05:28:32;;;;;;;0.40;0.30;;;13.90;99.90;;;;;;5091889;28;20726;-81
2021/08/23 05:30:58;;;;;;;0.40;0.20;;;13.90;99.90;;;;;;5092310;28;20401;-81
2021/08/23 05:33:23;;;;;;;0.40;0.30;;;13.90;99.90;;;;;;5092390;28;20370;-82
2021/08/23 05:35:49;;;;;;;0.40;0.20;;;13.90;99.90;;;;;;5091643;28;20374;-81
2021/08/23 05:38:14;;;;;;;0.40;0.20;;;13.90;99.90;;;;;;5092080;28;20404;-81
2021/08/23 05:40:40;;;;;;;0.40;0.20;;;14.00;99.90;;;;;;5091259;28;20708;-81
2021/08/23 05:43:06;;;;;;;0.40;0.28;;;14.00;99.90;;;;;;5091262;28;20394;-81
2021/08/23 05:45:31;;;;;;;0.40;0.20;;;14.10;99.90;;;;;;5091391;28;20377;-81
2021/08/23 05:47:57;;;;;;;0.40;0.20;;;14.20;99.90;;;;;;5092245;28;20467;-81
2021/08/23 05:50:23;;;;;;;0.40;0.30;;;14.30;99.90;;;;;;5091911;28;20425;-81
2021/08/23 05:52:49;;;;;;;0.40;0.23;;;14.30;99.90;;;;;;5090181;28;20869;-81
2021/08/23 05:55:15;;;;;;;0.40;0.30;;;14.40;99.90;;;;;;5092099;28;20435;-81
2021/08/23 05:57:40;;;;;;;0.40;0.30;;;14.50;99.90;;;;;;5090458;28;20785;-82
2021/08/23 06:00:07;;;;;;;0.40;0.30;;;14.50;99.90;;;;;;5091666;28;20385;-81
2021/08/23 06:02:33;;;;;;;0.40;0.20;;;14.70;99.90;;;;;;5091310;28;20382;-80
2021/08/23 06:04:59;;;;;;;0.40;0.20;;;14.70;99.90;;;;;;5091689;28;20386;-81
2021/08/23 06:07:24;;;;;;;0.40;0.30;;;14.80;99.90;;;;;;5083320;28;20380;-81
2021/08/23 06:09:50;;;;;;;0.40;0.20;;;14.80;99.90;;;;;;5070771;28;20404;-81
2021/08/23 06:12:16;;;;;;;0.40;0.20;;;14.80;99.90;;;;;;5071426;28;20422;-82
2021/08/23 06:14:42;;;;;;;0.40;0.20;;;14.90;99.90;;;;;;5070834;28;20384;-81
2021/08/23 06:17:08;;;;;;;0.40;0.20;;;14.90;99.90;;;;;;5070249;28;20411;-80
2021/08/23 06:19:34;;;;;;;0.40;0.20;;;15.00;99.90;;;;;;5070483;28;20390;-81
2021/08/23 06:22:00;;;;;;;0.40;0.20;;;15.00;99.90;;;;;;5071196;28;20482;-80
2021/08/23 06:24:25;;;;;;;0.40;0.20;;;15.10;99.90;;;;;;5071360;28;20379;-82
2021/08/23 06:26:51;;;;;;;0.40;0.30;;;15.20;99.90;;;;;;5070602;28;20391;-81
2021/08/23 06:29:17;;;;;;;0.40;0.30;;;15.10;99.90;;;;;;5083512;28;20735;-82
2021/08/23 06:31:42;;;;;;;0.40;0.20;;;15.10;99.90;;;;;;5090520;28;20519;-80
2021/08/23 06:34:08;;;;;;;0.40;0.20;;;15.20;99.90;;;;;;5091696;28;20861;-82
2021/08/23 06:36:35;;;;;;;0.40;0.30;;;15.20;99.90;;;;;;5089506;28;20480;-80
2021/08/23 06:39:01;;;;;;;0.40;0.30;;;15.30;99.90;;;;;;5091104;28;20381;-81
2021/08/23 06:41:28;;;;;;;0.40;0.30;;;15.30;99.90;;;;;;5090993;28;20370;-81
2021/08/23 06:43:54;;;;;;;0.40;0.30;;;15.40;99.90;;;;;;5090274;28;20477;-80
2021/08/23 06:46:20;;;;;;;0.40;0.20;;;15.50;99.90;;;;;;5090615;28;20397;-80
2021/08/23 06:48:46;;;;;;;0.40;0.20;;;15.50;99.90;;;;;;5089974;28;20410;-80
2021/08/23 06:51:13;;;;;;;0.40;0.20;;;15.50;99.90;;;;;;5089058;28;20406;-79
2021/08/23 06:53:39;;;;;;;0.40;0.20;;;15.60;99.90;;;;;;5089329;28;20397;-83
2021/08/23 06:56:05;;;;;;;0.40;0.22;;;15.60;99.90;;;;;;5090395;28;20931;-83
2021/08/23 06:58:30;;;;;;;0.40;0.30;;;15.70;99.90;;;;;;5090129;28;20390;-79
2021/08/23 07:00:56;;;;;;;0.40;0.30;;;15.70;99.90;;;;;;5089844;28;20965;-82
2021/08/23 07:03:22;;;;;;;0.40;0.30;;;15.80;99.90;;;;;;5090858;28;20384;-83
2021/08/23 07:05:48;;;;;;;0.40;0.30;;;15.80;99.90;;;;;;5089177;28;20393;-81
2021/08/23 07:08:14;;;;;;;0.40;0.30;;;15.90;99.90;;;;;;5091480;28;20408;-81
2021/08/23 07:10:40;;;;;;;0.40;0.20;;;15.90;99.90;;;;;;5093452;28;20744;-80
2021/08/23 07:13:06;;;;;;;0.40;0.30;;;16.10;99.90;;;;;;5094539;28;20394;-81
2021/08/23 07:15:32;;;;;;;0.40;0.20;;;16.10;99.90;;;;;;5094356;28;20389;-79
2021/08/23 07:17:58;;;;;;;0.40;0.20;;;16.20;99.90;;;;;;5094220;28;20425;-81
2021/08/23 07:20:24;;;;;;;0.40;0.30;;;16.20;99.90;;;;;;5094928;28;20842;-76
2021/08/23 07:22:49;;;;;;;0.40;0.20;;;16.30;99.90;;;;;;5093974;28;20828;-76
2021/08/23 07:25:15;;;;;;;0.40;0.20;;;16.30;99.90;;;;;;5094643;28;20389;-76
2021/08/23 07:27:41;;;;;;;0.40;0.30;;;16.40;99.90;;;;;;5094327;28;20417;-76
2021/08/23 07:30:07;;;;;;;0.40;0.20;;;16.50;99.90;;;;;;5076110;28;20413;-76
2021/08/23 07:32:33;;;;;;;0.40;0.30;;;16.40;99.90;;;;;;5094893;28;20386;-76
2021/08/23 07:34:59;;;;;;;0.40;0.30;;;16.40;99.90;;;;;;5094053;28;20750;-75
2021/08/23 07:37:24;;;;;;;0.40;0.20;;;16.50;99.90;;;;;;5092365;28;20378;-75
2021/08/23 07:39:50;;;;;;;0.40;0.30;;;16.70;99.90;;;;;;5093211;28;20415;-75
2021/08/23 07:42:16;;;;;;;0.40;0.27;;;16.80;99.90;;;;;;5093812;28;20787;-75
2021/08/23 07:44:42;;;;;;;0.40;0.20;;;16.90;99.90;;;;;;5093621;28;20416;-75
2021/08/23 07:47:08;;;;;;;0.40;0.20;;;16.90;99.90;;;;;;5094079;28;20439;-75
2021/08/23 07:49:35;;;;;;;0.40;0.30;;;17.10;99.90;;;;;;5094399;28;20398;-75
2021/08/23 07:52:01;;;;;;;0.40;0.30;;;17.10;99.90;;;;;;5094249;28;20823;-76
2021/08/23 07:54:26;;;;;;;0.40;0.30;;;17.10;99.90;;;;;;5094320;28;20405;-75
2021/08/23 07:56:52;;;;;;;0.40;0.20;;;17.20;99.90;;;;;;5093605;28;20362;-75
2021/08/23 07:59:18;;;;;;;0.40;0.28;;;17.20;99.90;;;;;;5093988;28;20378;-75
2021/08/23 08:01:44;;;;;;;0.40;0.30;;;17.20;99.90;;;;;;5093527;28;20410;-75
2021/08/23 08:04:11;;;;;;;0.40;0.30;;;17.30;99.90;;;;;;5094291;28;20374;-75
2021/08/23 08:06:37;;;;;;;0.40;0.20;;;17.40;99.90;;;;;;5093641;28;20428;-76
2021/08/23 08:09:03;;;;;;;0.40;0.20;;;17.50;99.90;;;;;;5094229;28;20768;-75
2021/08/23 08:11:29;;;;;;;0.40;0.30;;;17.60;99.90;;;;;;5093700;28;20402;-75
2021/08/23 08:13:54;;;;;;;0.40;0.20;;;17.70;99.90;;;;;;5092129;28;20446;-75
2021/08/23 08:16:20;;;;;;;0.40;0.30;;;17.90;99.90;;;;;;5093967;28;20374;-75
2021/08/23 08:18:46;;;;;;;0.40;0.30;;;17.90;99.90;;;;;;5093447;28;20386;-75
2021/08/23 08:21:12;;;;;;;0.40;0.30;;;18.00;99.90;;;;;;5091349;28;20874;-75
2021/08/23 08:23:37;;;;;;;0.40;0.30;;;18.00;99.90;;;;;;5093435;28;20447;-77
2021/08/23 08:26:03;;;;;;;0.40;0.20;;;17.90;99.90;;;;;;5092364;28;20447;-74
2021/08/23 08:28:32;;;;;;;0.40;0.30;;;17.90;99.90;;;;;;5093475;28;20378;-74
2021/08/23 08:30:58;;;;;;;0.40;0.20;;;18.00;99.90;;;;;;5092995;28;20410;-75
2021/08/23 08:33:23;;;;;;;0.40;0.30;;;18.00;99.90;;;;;;5093384;28;20392;-75
2021/08/23 08:35:49;;;;;;;0.40;0.30;;;18.00;99.90;;;;;;5092740;28;20386;-75
2021/08/23 08:38:14;;;;;;;0.40;0.20;;;17.90;99.90;;;;;;5093203;28;20379;-76
2021/08/23 08:40:40;;;;;;;0.40;0.30;;;17.90;99.90;;;;;;5092618;28;20378;-76
2021/08/23 08:43:06;;;;;;;0.40;0.30;;;17.90;99.90;;;;;;5093402;28;20468;-75
2021/08/23 08:45:31;;;;;;;0.40;0.30;;;17.80;99.90;;;;;;5093422;28;20902;-75
2021/08/23 08:48:02;;;;;;;0.40;0.30;;;17.90;99.90;;;;;;5092435;28;20867;-74
2021/08/23 08:50:29;;;;;;;0.40;0.30;;;18.00;99.90;;;;;;5093471;28;20437;-75
2021/08/23 08:52:55;;;;;;;0.40;0.30;;;17.90;99.90;;;;;;5092609;28;20430;-75
2021/08/23 08:55:20;;;;;;;0.40;0.30;;;17.90;99.90;;;;;;5092972;28;20762;-75
2021/08/23 08:57:46;;;;;;;0.40;0.30;;;18.00;99.90;;;;;;5081934;28;20413;-76
2021/08/23 09:00:12;;;;;;;0.40;0.30;;;18.20;99.90;;;;;;5092653;28;20469;-76
2021/08/23 09:02:38;;;;;;;0.40;0.30;;;18.30;99.90;;;;;;5071007;28;20470;-76
2021/08/23 09:05:18;;;;;;;0.40;0.20;;;18.40;99.90;;;;;;5090310;28;20382;-76
2021/08/23 09:07:49;;;;;;;0.40;0.30;;;18.60;99.90;;;;;;5077148;28;20379;-76
2021/08/23 09:10:22;;;;;;;0.40;0.20;;;18.90;99.90;;;;;;5071978;28;20412;-76
2021/08/23 09:13:02;;;;;;;0.40;0.20;;;19.00;99.90;;;;;;5070194;28;20399;-77
2021/08/23 09:15:28;;;;;;;0.40;0.20;;;19.30;99.90;;;;;;5088703;28;20384;-77
2021/08/23 09:18:04;;;;;;;0.40;0.20;;;19.10;99.90;;;;;;5077910;28;20380;-76
2021/08/23 09:20:31;;;;;;;0.40;0.20;;;19.00;99.90;;;;;;5079455;28;20783;-76
2021/08/23 09:23:11;;;;;;;0.40;0.20;;;19.00;99.90;;;;;;5086504;28;20886;-78
2021/08/23 09:25:37;;;;;;;0.40;0.30;;;18.90;99.90;;;;;;5087882;28;20384;-75
2021/08/23 09:28:08;;;;;;;0.40;0.20;;;19.00;99.90;;;;;;5089939;28;20516;-75
2021/08/23 09:30:34;;;;;;;0.40;0.20;;;19.10;99.90;;;;;;5070089;28;20772;-76
2021/08/23 09:33:01;;;;;;;0.40;0.30;;;19.20;99.90;;;;;;5086714;28;20386;-77
2021/08/23 09:35:27;;;;;;;0.40;0.30;;;19.40;99.90;;;;;;5075005;28;21120;-76
2021/08/23 09:37:53;;;;;;;0.40;0.20;;;19.50;99.90;;;;;;5069333;28;20471;-75
2021/08/23 09:40:26;;;;;;;0.40;0.20;;;19.40;99.90;;;;;;5087100;28;20384;-76
2021/08/23 09:43:13;;;;;;;0.40;0.20;;;19.40;99.90;;;;;;5071000;28;20459;-76
2021/08/23 09:45:44;;;;;;;0.40;0.30;;;19.40;99.90;;;;;;5087639;28;20859;-77
2021/08/23 09:48:09;;;;;;;0.40;0.20;;;19.50;99.90;;;;;;5071904;28;20376;-77
2021/08/23 09:50:49;;;;;;;0.40;0.30;;;19.60;99.90;;;;;;5071687;28;20457;-76
2021/08/23 09:53:17;;;;;;;0.40;0.20;;;19.60;99.90;;;;;;5072175;28;20394;-79
2021/08/23 09:55:45;;;;;;;0.40;0.20;;;19.60;99.90;;;;;;5086903;28;20396;-80
2021/08/23 09:58:12;;;;;;;0.40;0.20;;;19.50;99.90;;;;;;5072115;28;20756;-76
2021/08/23 10:00:39;;;;;;;0.40;0.30;;;19.40;99.90;;;;;;5084475;28;20539;-78
2021/08/23 10:03:26;;;;;;;0.40;0.20;;;19.50;99.90;;;;;;5090656;28;20438;-78
2021/08/23 10:05:54;;;;;;;0.40;0.20;;;19.50;99.90;;;;;;5076340;28;20379;-78
2021/08/23 10:08:24;;;;;;;0.40;0.20;;;19.70;99.90;;;;;;5085028;28;20386;-77
2021/08/23 10:10:51;;;;;;;0.40;0.20;;;19.80;99.90;;;;;;5076426;28;20407;-79
2021/08/23 10:13:18;;;;;;;0.40;0.20;;;19.70;99.90;;;;;;5086088;28;20431;-78
2021/08/23 10:15:44;;;;;;;0.40;0.30;;;19.50;99.90;;;;;;5075246;28;20466;-78
2021/08/23 10:18:09;;;;;;;0.40;0.20;;;19.70;99.90;;;;;;5081957;28;20430;-76
2021/08/23 10:20:36;;;;;;;0.40;0.20;;;19.80;99.90;;;;;;5081588;28;20386;-76
2021/08/23 10:23:03;;;;;;;0.40;0.30;;;20.00;99.90;;;;;;5074012;28;20412;-77
2021/08/23 10:25:29;;;;;;;0.40;0.20;;;20.10;99.90;;;;;;5087636;28;20390;-77
2021/08/23 10:28:09;;;;;;;0.50;0.40;;;20.20;99.90;;;;;;5058374;28;20374;-77
2021/08/23 10:30:37;;;;;;;0.40;0.30;;;20.20;99.90;;;;;;5089797;28;20406;-76
2021/08/23 10:33:10;;;;;;;0.40;0.20;;;20.20;99.90;;;;;;5072319;28;20390;-77
2021/08/23 10:35:45;;;;;;;0.40;0.30;;;20.20;99.90;;;;;;5073172;28;20382;-76
2021/08/23 10:38:16;;;;;;;0.40;0.20;;;20.20;99.90;;;;;;5091530;28;20468;-77
2021/08/23 10:40:41;;;;;;;0.40;0.30;;;20.50;99.90;;;;;;5091685;28;20382;-77
2021/08/23 10:43:19;;;;;;;0.40;0.20;;;20.40;99.90;;;;;;5090156;28;20385;-77
2021/08/23 10:45:47;;;;;;;0.40;0.30;;;20.50;99.90;;;;;;5080556;28;20721;-78
2021/08/23 10:48:17;;;;;;;0.40;0.20;;;20.40;99.90;;;;;;5069513;28;20384;-77
2021/08/23 10:50:56;;;;;;;0.40;0.30;;;20.40;99.90;;;;;;5079070;28;20406;-77
2021/08/23 10:53:33;;;;;;;0.40;0.30;;;20.30;99.90;;;;;;5072409;28;20412;-76
2021/08/23 10:55:58;;;;;;;0.40;0.30;;;20.40;99.90;;;;;;5073650;28;20402;-76
2021/08/23 10:58:29;;;;;;;0.40;0.30;;;20.40;99.90;;;;;;5051461;28;20397;-78
2021/08/23 11:00:55;;;;;;;0.40;0.20;;;20.50;99.90;;;;;;5067025;28;20551;-78
2021/08/23 11:03:27;;;;;;;0.40;0.30;;;20.40;99.90;;;;;;5066579;28;21684;-78
2021/08/23 11:06:03;;;;;;;0.40;0.20;;;20.40;99.90;;;;;;5046213;28;20414;-78
2021/08/23 11:08:29;;;;;;;0.40;0.30;;;20.50;99.90;;;;;;5066638;28;20444;-78
2021/08/23 11:11:11;;;;;;;0.40;0.30;;;20.40;99.90;;;;;;5064731;28;21113;-79
2021/08/23 11:13:42;;;;;;;0.40;0.30;;;20.60;98.40;;;;;;5067327;28;20380;-77
2021/08/23 11:16:09;;;;;;;0.40;0.20;;;20.80;99.50;;;;;;5066182;28;20384;-77
2021/08/23 11:18:42;;;;;;;0.40;0.30;;;20.90;98.70;;;;;;5067069;28;20888;-77
2021/08/23 11:21:16;;;;;;;0.40;0.20;;;20.80;99.60;;;;;;5068045;28;20394;-78
2021/08/23 11:23:43;;;;;;;0.40;0.30;;;20.60;99.90;;;;;;5068813;28;20414;-75
2021/08/23 11:26:13;;;;;;;0.40;0.30;;;20.40;99.90;;;;;;5066201;28;20395;-77
2021/08/23 11:28:38;;;;;;;0.40;0.30;;;20.20;99.90;;;;;;5069021;28;20492;-74
2021/08/23 11:31:05;;;;;;;0.40;0.20;;;20.10;99.90;;;;;;5067444;28;20414;-76
2021/08/23 11:33:33;;;;;;;0.40;0.20;;;19.90;99.90;;;;;;5065130;28;21431;-76
2021/08/23 11:36:04;;;;;;;0.40;0.30;;;19.70;99.90;;;;;;5064709;28;20394;-78
2021/08/23 11:38:32;;;;;;;0.40;0.30;;;19.80;99.90;;;;;;5066602;28;20772;-77
2021/08/23 11:41:00;;;;;;;0.40;0.30;;;19.70;99.90;;;;;;5066955;28;20383;-82
2021/08/23 11:43:27;;;;;;;0.40;0.20;;;19.80;99.90;;;;;;5067489;28;20401;-76
2021/08/23 11:45:54;;;;;;;0.40;0.30;;;19.80;99.90;;;;;;5065891;28;20743;-77
2021/08/23 11:48:20;;;;;;;0.40;0.30;;;19.90;99.90;;;;;;5067532;28;20403;-78
2021/08/23 11:50:45;;;;;;;0.40;0.30;;;19.90;99.90;;;;;;5068558;28;20406;-76
2021/08/23 11:53:12;;;;;;;0.40;0.30;;;20.00;99.90;;;;;;5067291;28;20443;-78
2021/08/23 11:55:44;;;;;;;0.40;0.30;;;19.80;99.90;;;;;;5069111;28;20387;-80
2021/08/23 11:58:15;;;;;;;0.40;0.30;;;19.80;99.90;;;;;;5070615;28;20729;-81
2021/08/23 12:00:43;;;;;;;0.40;0.30;;;19.70;99.90;;;;;;5071084;28;20421;-80
2021/08/23 12:03:13;;;;;;;0.40;0.30;;;19.70;99.90;;;;;;5052715;28;20757;-82
2021/08/23 12:05:42;;;;;;;0.40;0.20;;;19.70;99.90;;;;;;5071219;28;20778;-80
2021/08/23 12:08:20;;;;;;;0.40;0.20;;;19.70;99.90;;;;;;5070030;28;20874;-79
2021/08/23 12:11:00;;;;;;;0.40;0.30;;;19.90;99.90;;;;;;5071405;28;20415;-82
2021/08/23 12:13:34;;;;;;;0.40;0.30;;;20.00;99.90;;;;;;5070970;28;20389;-81
2021/08/23 12:16:04;;;;;;;0.40;0.30;;;20.20;99.90;;;;;;5072130;28;20416;-82
2021/08/23 12:18:35;;;;;;;0.40;0.30;;;20.30;99.90;;;;;;5073952;28;20945;-83
2021/08/23 12:21:27;;;;;;;0.40;0.20;;;20.30;99.90;;;;;;5071072;28;20408;-81
2021/08/23 12:24:03;;;;;;;0.40;0.20;;;20.20;99.90;;;;;;5070994;28;20406;-83
2021/08/23 12:26:36;;;;;;;0.40;0.30;;;20.40;99.90;;;;;;5068876;28;20391;-80
2021/08/23 12:29:15;;;;;;;0.40;0.28;;;20.80;99.90;;;;;;5071246;28;21358;-82
2021/08/23 12:32:19;;;;;;;0.40;0.30;;;20.90;99.90;;;;;;5071423;28;20691;-80
2021/08/23 12:34:50;;;;;;;0.40;0.30;;;20.80;99.90;;;;;;5067039;28;20473;-80
2021/08/23 12:37:18;;;;;;;0.40;0.20;;;20.70;99.90;;;;;;5069168;28;20878;-79
2021/08/23 12:39:46;;;;;;;0.40;0.30;;;20.70;99.90;;;;;;5070548;28;20387;-79
2021/08/23 12:42:12;;;;;;;0.40;0.20;;;20.50;99.90;;;;;;5069554;28;20393;-81
2021/08/23 12:44:38;;;;;;;0.40;0.20;;;20.30;99.90;;;;;;5070892;28;20797;-80
2021/08/23 12:47:04;;;;;;;0.40;0.30;;;20.10;99.90;;;;;;5068849;28;20438;-82
2021/08/23 12:49:30;;;;;;;0.40;0.20;;;20.00;99.90;;;;;;5071115;28;20395;-78